Lima, OH

9:20 PM EST on February 24, 2017 (GMT -0500)
northwest lima | | Change Station

Elev 879 ft 40.75 °N, 84.13 °W | Updated 10 seconds ago

Overcast
Overcast
61.7 °F
Feels Like 61.7 °F
N
5.3
Wind Variable Wind from SSW

Today
High -- | Low -- °F
--% Chance of Precip.
Yesterday
High -- | Low -- °F
Precip. -- in
Pressure 29.47 in
Visibility 10.0 miles
Clouds Scattered Clouds 8000 ft
Mostly Cloudy 9500 ft
Mostly Cloudy 12000 ft
Dew Point 51 °F
Humidity 69%
Rainfall 0.05 in
Snow Depth Not available.
7:17 AM 6:22 PM
Waning Crescent, 3% visible
METAR KAOH 250153Z AUTO 18015KT 10SM SCT080 BKN095 BKN120 17/12 A2948 RMK AO2 LTG DSNT E AND SE SLP978 T01670117
Pressure 29.47 in
Visibility 10.0 miles
Clouds Scattered Clouds 8000 ft
Mostly Cloudy 9500 ft
Mostly Cloudy 12000 ft
Dew Point 51 °F
Humidity 69%
Rainfall 0.05 in
Snow Depth Not available.
7:17 AM 6:22 PM
Waning Crescent, 3% visible
METAR KAOH 250153Z AUTO 18015KT 10SM SCT080 BKN095 BKN120 17/12 A2948 RMK AO2 LTG DSNT E AND SE SLP978 T01670117

Get Your Daily Forecast Email!

Thanks for signing up!

Be on the lookout for a verification email in your inbox.

You'll start receiving the daily forecast at 8 AM.

×

10-Day Weather Forecast

Almanac

Astronomy

Feb. 24, 2017 Rise Set
Actual Time
Civil Twilight
Nautical Twilight
Astronomical Twilight
Moon
Length of Visible Light
Length of Day
Tomorrow will be .
, % of the Moon is Illuminated

Today's Extremes

State Highs State Lows

Community

WunderPhotos

Upload Photos

1,962,540 photos uploaded!

WunderBlog® & News

Nearby

Air Quality

  Air Quality AQ Index Pollutant
Not available.

Snow Depth

Station Depth Elevation

Earthquake Activity

City Distance Mag. Time & Date
Minimum magnitude displayed is 2.5.

Coastal Water Temperatures

Place Temperature

Stations

Nearby Weather Stations

Station Location Temp. Windchill Dew Point Humidity Wind Precip. Elev Updated Type
                   

Watches & Warnings

There are currently no watches in effect.